sensor_id;sensor_type;location;lat;lon;timestamp;P1;durP1;ratioP1;P2;durP2;ratioP2
82558;SDS011;72227;42.004;21.364;2023-10-19T00:01:06;23.25;;;13.75;;
82558;SDS011;72227;42.004;21.364;2023-10-19T00:03:34;20.25;;;13.65;;
82558;SDS011;72227;42.004;21.364;2023-10-19T00:06:00;19.42;;;13.27;;
82558;SDS011;72227;42.004;21.364;2023-10-19T00:08:26;20.75;;;12.20;;
82558;SDS011;72227;42.004;21.364;2023-10-19T00:11:01;18.48;;;13.13;;
82558;SDS011;72227;42.004;21.364;2023-10-19T00:13:30;21.48;;;13.27;;
82558;SDS011;72227;42.004;21.364;2023-10-19T00:15:56;22.42;;;13.27;;
82558;SDS011;72227;42.004;21.364;2023-10-19T00:18:25;18.38;;;13.57;;
82558;SDS011;72227;42.004;21.364;2023-10-19T00:20:53;20.48;;;13.80;;
82558;SDS011;72227;42.004;21.364;2023-10-19T00:23:23;20.60;;;16.55;;
82558;SDS011;72227;42.004;21.364;2023-10-19T00:25:59;19.95;;;12.02;;
82558;SDS011;72227;42.004;21.364;2023-10-19T00:28:33;21.23;;;14.30;;
82558;SDS011;72227;42.004;21.364;2023-10-19T00:31:00;22.27;;;13.90;;
82558;SDS011;72227;42.004;21.364;2023-10-19T00:33:32;18.00;;;13.40;;
82558;SDS011;72227;42.004;21.364;2023-10-19T00:36:02;19.50;;;13.95;;
82558;SDS011;72227;42.004;21.364;2023-10-19T00:38:35;21.73;;;14.95;;
82558;SDS011;72227;42.004;21.364;2023-10-19T00:41:01;20.20;;;14.82;;
82558;SDS011;72227;42.004;21.364;2023-10-19T00:43:33;20.60;;;14.95;;
82558;SDS011;72227;42.004;21.364;2023-10-19T00:46:12;20.17;;;14.32;;
82558;SDS011;72227;42.004;21.364;2023-10-19T00:48:43;21.95;;;15.48;;
82558;SDS011;72227;42.004;21.364;2023-10-19T00:51:11;22.95;;;14.88;;
82558;SDS011;72227;42.004;21.364;2023-10-19T00:54:05;23.42;;;14.75;;
82558;SDS011;72227;42.004;21.364;2023-10-19T00:56:40;20.83;;;15.95;;
82558;SDS011;72227;42.004;21.364;2023-10-19T00:59:11;23.88;;;15.65;;
82558;SDS011;72227;42.004;21.364;2023-10-19T01:01:44;23.42;;;15.75;;
82558;SDS011;72227;42.004;21.364;2023-10-19T01:04:16;24.58;;;16.95;;
82558;SDS011;72227;42.004;21.364;2023-10-19T01:06:57;25.27;;;17.20;;
82558;SDS011;72227;42.004;21.364;2023-10-19T01:09:32;23.00;;;15.82;;
82558;SDS011;72227;42.004;21.364;2023-10-19T01:12:04;23.45;;;15.68;;
82558;SDS011;72227;42.004;21.364;2023-10-19T01:17:55;22.45;;;15.77;;
82558;SDS011;72227;42.004;21.364;2023-10-19T01:20:22;22.15;;;14.90;;
82558;SDS011;72227;42.004;21.364;2023-10-19T01:23:09;25.35;;;15.90;;
82558;SDS011;72227;42.004;21.364;2023-10-19T01:28:11;22.70;;;15.73;;
82558;SDS011;72227;42.004;21.364;2023-10-19T01:30:41;21.13;;;14.60;;
82558;SDS011;72227;42.004;21.364;2023-10-19T01:33:07;26.02;;;16.02;;
82558;SDS011;72227;42.004;21.364;2023-10-19T01:35:38;24.88;;;15.68;;
82558;SDS011;72227;42.004;21.364;2023-10-19T01:38:23;23.73;;;15.45;;
82558;SDS011;72227;42.004;21.364;2023-10-19T01:40:50;21.55;;;14.70;;
82558;SDS011;72227;42.004;21.364;2023-10-19T01:43:16;22.13;;;17.90;;
82558;SDS011;72227;42.004;21.364;2023-10-19T01:45:55;21.75;;;15.00;;
82558;SDS011;72227;42.004;21.364;2023-10-19T01:48:22;26.05;;;15.55;;
82558;SDS011;72227;42.004;21.364;2023-10-19T01:50:58;21.42;;;15.80;;
82558;SDS011;72227;42.004;21.364;2023-10-19T01:53:25;22.35;;;15.65;;
82558;SDS011;72227;42.004;21.364;2023-10-19T01:55:51;25.00;;;16.80;;
82558;SDS011;72227;42.004;21.364;2023-10-19T01:58:23;24.70;;;16.60;;
82558;SDS011;72227;42.004;21.364;2023-10-19T02:00:52;25.15;;;18.25;;
82558;SDS011;72227;42.004;21.364;2023-10-19T02:03:25;21.67;;;13.80;;
82558;SDS011;72227;42.004;21.364;2023-10-19T02:05:57;22.92;;;14.63;;
82558;SDS011;72227;42.004;21.364;2023-10-19T02:08:24;19.27;;;13.00;;
82558;SDS011;72227;42.004;21.364;2023-10-19T02:10:55;20.05;;;12.05;;
82558;SDS011;72227;42.004;21.364;2023-10-19T02:13:22;19.88;;;12.02;;
82558;SDS011;72227;42.004;21.364;2023-10-19T02:15:48;18.00;;;12.65;;
82558;SDS011;72227;42.004;21.364;2023-10-19T02:18:16;17.02;;;12.10;;
82558;SDS011;72227;42.004;21.364;2023-10-19T02:20:42;20.27;;;12.57;;
82558;SDS011;72227;42.004;21.364;2023-10-19T02:23:13;20.15;;;12.45;;
82558;SDS011;72227;42.004;21.364;2023-10-19T02:25:39;18.52;;;11.57;;
82558;SDS011;72227;42.004;21.364;2023-10-19T02:28:07;17.40;;;11.38;;
82558;SDS011;72227;42.004;21.364;2023-10-19T02:30:34;16.15;;;10.77;;
82558;SDS011;72227;42.004;21.364;2023-10-19T02:33:00;15.15;;;10.77;;
82558;SDS011;72227;42.004;21.364;2023-10-19T02:35:28;19.65;;;10.93;;
82558;SDS011;72227;42.004;21.364;2023-10-19T02:37:55;21.13;;;11.18;;
82558;SDS011;72227;42.004;21.364;2023-10-19T02:40:21;17.58;;;10.73;;
82558;SDS011;72227;42.004;21.364;2023-10-19T02:42:49;16.83;;;12.35;;
82558;SDS011;72227;42.004;21.364;2023-10-19T02:45:16;20.58;;;11.35;;
82558;SDS011;72227;42.004;21.364;2023-10-19T02:47:43;17.45;;;10.57;;
82558;SDS011;72227;42.004;21.364;2023-10-19T02:50:10;19.42;;;11.68;;
82558;SDS011;72227;42.004;21.364;2023-10-19T02:52:42;20.42;;;11.75;;
82558;SDS011;72227;42.004;21.364;2023-10-19T02:55:11;16.73;;;11.98;;
82558;SDS011;72227;42.004;21.364;2023-10-19T02:57:37;16.70;;;12.05;;
82558;SDS011;72227;42.004;21.364;2023-10-19T03:00:06;16.13;;;10.50;;
82558;SDS011;72227;42.004;21.364;2023-10-19T03:02:37;17.48;;;12.35;;
82558;SDS011;72227;42.004;21.364;2023-10-19T03:05:03;15.88;;;11.88;;
82558;SDS011;72227;42.004;21.364;2023-10-19T03:07:42;17.40;;;11.55;;
82558;SDS011;72227;42.004;21.364;2023-10-19T03:10:09;16.67;;;13.60;;
82558;SDS011;72227;42.004;21.364;2023-10-19T03:12:56;15.75;;;11.30;;
82558;SDS011;72227;42.004;21.364;2023-10-19T03:15:22;23.55;;;12.52;;
82558;SDS011;72227;42.004;21.364;2023-10-19T03:17:49;17.92;;;12.15;;
82558;SDS011;72227;42.004;21.364;2023-10-19T03:20:15;18.50;;;12.50;;
82558;SDS011;72227;42.004;21.364;2023-10-19T03:22:43;18.55;;;12.45;;
82558;SDS011;72227;42.004;21.364;2023-10-19T03:25:11;16.95;;;11.65;;
82558;SDS011;72227;42.004;21.364;2023-10-19T03:27:57;18.45;;;12.52;;
82558;SDS011;72227;42.004;21.364;2023-10-19T03:30:31;17.98;;;12.52;;
82558;SDS011;72227;42.004;21.364;2023-10-19T03:32:58;18.00;;;13.25;;
82558;SDS011;72227;42.004;21.364;2023-10-19T03:35:24;18.98;;;12.68;;
82558;SDS011;72227;42.004;21.364;2023-10-19T03:37:51;18.45;;;12.10;;
82558;SDS011;72227;42.004;21.364;2023-10-19T03:40:18;17.25;;;13.02;;
82558;SDS011;72227;42.004;21.364;2023-10-19T03:42:54;18.55;;;11.77;;
82558;SDS011;72227;42.004;21.364;2023-10-19T03:45:20;22.15;;;12.77;;
82558;SDS011;72227;42.004;21.364;2023-10-19T03:47:50;22.00;;;14.02;;
82558;SDS011;72227;42.004;21.364;2023-10-19T03:50:21;19.88;;;13.82;;
82558;SDS011;72227;42.004;21.364;2023-10-19T03:52:47;18.90;;;13.43;;
82558;SDS011;72227;42.004;21.364;2023-10-19T03:55:13;20.75;;;14.18;;
82558;SDS011;72227;42.004;21.364;2023-10-19T03:57:48;21.35;;;13.90;;
82558;SDS011;72227;42.004;21.364;2023-10-19T04:00:20;18.92;;;13.77;;
82558;SDS011;72227;42.004;21.364;2023-10-19T04:02:54;19.45;;;13.00;;
82558;SDS011;72227;42.004;21.364;2023-10-19T04:05:23;18.52;;;11.68;;
82558;SDS011;72227;42.004;21.364;2023-10-19T04:07:50;16.70;;;11.45;;
82558;SDS011;72227;42.004;21.364;2023-10-19T04:10:23;18.73;;;12.38;;
82558;SDS011;72227;42.004;21.364;2023-10-19T04:12:55;18.83;;;13.23;;
82558;SDS011;72227;42.004;21.364;2023-10-19T04:15:24;18.05;;;12.15;;
82558;SDS011;72227;42.004;21.364;2023-10-19T04:17:51;18.50;;;12.13;;
82558;SDS011;72227;42.004;21.364;2023-10-19T04:20:20;17.40;;;12.43;;
82558;SDS011;72227;42.004;21.364;2023-10-19T04:22:54;17.00;;;12.27;;
82558;SDS011;72227;42.004;21.364;2023-10-19T04:25:21;20.00;;;11.85;;
82558;SDS011;72227;42.004;21.364;2023-10-19T04:27:51;20.65;;;12.00;;
82558;SDS011;72227;42.004;21.364;2023-10-19T04:30:17;18.25;;;12.00;;
82558;SDS011;72227;42.004;21.364;2023-10-19T04:32:47;17.48;;;12.38;;
82558;SDS011;72227;42.004;21.364;2023-10-19T04:35:14;18.08;;;11.70;;
82558;SDS011;72227;42.004;21.364;2023-10-19T04:37:50;16.02;;;11.98;;
82558;SDS011;72227;42.004;21.364;2023-10-19T04:40:17;16.42;;;11.70;;
82558;SDS011;72227;42.004;21.364;2023-10-19T04:42:43;17.48;;;12.00;;
82558;SDS011;72227;42.004;21.364;2023-10-19T04:45:10;20.33;;;12.52;;
82558;SDS011;72227;42.004;21.364;2023-10-19T04:47:37;18.65;;;12.48;;
82558;SDS011;72227;42.004;21.364;2023-10-19T04:50:03;17.30;;;13.00;;
82558;SDS011;72227;42.004;21.364;2023-10-19T04:52:30;21.85;;;13.77;;
82558;SDS011;72227;42.004;21.364;2023-10-19T04:54:56;21.05;;;12.85;;
82558;SDS011;72227;42.004;21.364;2023-10-19T04:57:22;19.10;;;12.88;;
82558;SDS011;72227;42.004;21.364;2023-10-19T04:59:49;19.10;;;13.18;;
82558;SDS011;72227;42.004;21.364;2023-10-19T05:02:15;23.60;;;14.77;;
82558;SDS011;72227;42.004;21.364;2023-10-19T05:04:42;22.77;;;13.98;;
82558;SDS011;72227;42.004;21.364;2023-10-19T05:07:08;22.65;;;12.57;;
82558;SDS011;72227;42.004;21.364;2023-10-19T05:09:37;18.52;;;12.57;;
82558;SDS011;72227;42.004;21.364;2023-10-19T05:12:04;17.60;;;12.13;;
82558;SDS011;72227;42.004;21.364;2023-10-19T05:14:34;19.35;;;14.18;;
82558;SDS011;72227;42.004;21.364;2023-10-19T05:17:04;18.08;;;13.63;;
82558;SDS011;72227;42.004;21.364;2023-10-19T05:19:33;24.98;;;13.32;;
82558;SDS011;72227;42.004;21.364;2023-10-19T05:22:00;20.25;;;13.45;;
82558;SDS011;72227;42.004;21.364;2023-10-19T05:24:26;20.77;;;15.18;;
82558;SDS011;72227;42.004;21.364;2023-10-19T05:26:55;20.35;;;14.35;;
82558;SDS011;72227;42.004;21.364;2023-10-19T05:32:06;23.83;;;14.85;;
82558;SDS011;72227;42.004;21.364;2023-10-19T05:34:34;29.92;;;18.92;;
82558;SDS011;72227;42.004;21.364;2023-10-19T05:37:01;23.85;;;16.92;;
82558;SDS011;72227;42.004;21.364;2023-10-19T05:39:30;20.25;;;14.75;;
82558;SDS011;72227;42.004;21.364;2023-10-19T05:44:26;19.40;;;13.15;;
82558;SDS011;72227;42.004;21.364;2023-10-19T05:46:52;18.98;;;13.20;;
82558;SDS011;72227;42.004;21.364;2023-10-19T05:49:19;19.75;;;12.82;;
82558;SDS011;72227;42.004;21.364;2023-10-19T05:51:46;25.63;;;14.38;;
82558;SDS011;72227;42.004;21.364;2023-10-19T05:54:12;22.65;;;14.07;;
82558;SDS011;72227;42.004;21.364;2023-10-19T05:56:38;21.83;;;14.35;;
82558;SDS011;72227;42.004;21.364;2023-10-19T05:59:04;21.98;;;14.60;;
82558;SDS011;72227;42.004;21.364;2023-10-19T06:01:31;23.85;;;14.18;;
82558;SDS011;72227;42.004;21.364;2023-10-19T06:03:59;20.95;;;14.38;;
82558;SDS011;72227;42.004;21.364;2023-10-19T06:06:28;21.60;;;14.27;;
82558;SDS011;72227;42.004;21.364;2023-10-19T06:08:54;21.02;;;14.82;;
82558;SDS011;72227;42.004;21.364;2023-10-19T06:11:20;22.95;;;14.93;;
82558;SDS011;72227;42.004;21.364;2023-10-19T06:13:48;20.08;;;14.48;;
82558;SDS011;72227;42.004;21.364;2023-10-19T06:16:17;27.05;;;14.57;;
82558;SDS011;72227;42.004;21.364;2023-10-19T06:18:43;20.65;;;14.10;;
82558;SDS011;72227;42.004;21.364;2023-10-19T06:21:09;19.25;;;14.00;;
82558;SDS011;72227;42.004;21.364;2023-10-19T06:23:37;22.58;;;14.40;;
82558;SDS011;72227;42.004;21.364;2023-10-19T06:26:09;25.05;;;17.40;;
82558;SDS011;72227;42.004;21.364;2023-10-19T06:28:39;25.17;;;17.17;;
82558;SDS011;72227;42.004;21.364;2023-10-19T06:31:06;23.00;;;15.68;;
82558;SDS011;72227;42.004;21.364;2023-10-19T06:33:32;20.98;;;14.63;;
82558;SDS011;72227;42.004;21.364;2023-10-19T06:35:59;25.95;;;16.30;;
82558;SDS011;72227;42.004;21.364;2023-10-19T06:38:28;21.52;;;14.50;;
82558;SDS011;72227;42.004;21.364;2023-10-19T06:40:54;19.70;;;15.00;;
82558;SDS011;72227;42.004;21.364;2023-10-19T06:43:21;22.42;;;13.65;;
82558;SDS011;72227;42.004;21.364;2023-10-19T06:45:50;16.67;;;12.65;;
82558;SDS011;72227;42.004;21.364;2023-10-19T06:48:17;19.98;;;14.88;;
82558;SDS011;72227;42.004;21.364;2023-10-19T06:50:43;31.15;;;19.92;;
82558;SDS011;72227;42.004;21.364;2023-10-19T06:53:10;23.42;;;15.63;;
82558;SDS011;72227;42.004;21.364;2023-10-19T06:55:36;18.70;;;13.57;;
82558;SDS011;72227;42.004;21.364;2023-10-19T06:58:02;21.90;;;13.57;;
82558;SDS011;72227;42.004;21.364;2023-10-19T07:00:29;19.55;;;12.95;;
82558;SDS011;72227;42.004;21.364;2023-10-19T07:02:56;21.17;;;13.98;;
82558;SDS011;72227;42.004;21.364;2023-10-19T07:05:24;28.80;;;13.75;;
82558;SDS011;72227;42.004;21.364;2023-10-19T07:07:52;17.40;;;13.27;;
82558;SDS011;72227;42.004;21.364;2023-10-19T07:10:20;18.10;;;12.98;;
82558;SDS011;72227;42.004;21.364;2023-10-19T07:12:53;20.40;;;13.57;;
82558;SDS011;72227;42.004;21.364;2023-10-19T07:15:20;21.05;;;14.05;;
82558;SDS011;72227;42.004;21.364;2023-10-19T07:17:50;17.42;;;12.82;;
82558;SDS011;72227;42.004;21.364;2023-10-19T07:20:20;18.08;;;13.45;;
82558;SDS011;72227;42.004;21.364;2023-10-19T07:22:56;26.63;;;17.33;;
82558;SDS011;72227;42.004;21.364;2023-10-19T07:25:25;28.58;;;20.00;;
82558;SDS011;72227;42.004;21.364;2023-10-19T07:27:52;18.27;;;13.60;;
82558;SDS011;72227;42.004;21.364;2023-10-19T07:30:20;23.00;;;15.52;;
82558;SDS011;72227;42.004;21.364;2023-10-19T07:32:49;23.50;;;15.38;;
82558;SDS011;72227;42.004;21.364;2023-10-19T07:35:19;19.45;;;12.50;;
82558;SDS011;72227;42.004;21.364;2023-10-19T07:38:06;19.70;;;13.82;;
82558;SDS011;72227;42.004;21.364;2023-10-19T07:40:33;18.73;;;14.38;;
82558;SDS011;72227;42.004;21.364;2023-10-19T07:42:59;21.77;;;14.10;;
82558;SDS011;72227;42.004;21.364;2023-10-19T07:45:27;19.63;;;13.95;;
82558;SDS011;72227;42.004;21.364;2023-10-19T07:47:57;20.13;;;13.75;;
82558;SDS011;72227;42.004;21.364;2023-10-19T07:50:34;17.48;;;13.82;;
82558;SDS011;72227;42.004;21.364;2023-10-19T07:53:18;18.90;;;12.48;;
82558;SDS011;72227;42.004;21.364;2023-10-19T07:55:44;18.20;;;13.05;;
82558;SDS011;72227;42.004;21.364;2023-10-19T07:58:10;17.63;;;12.90;;
82558;SDS011;72227;42.004;21.364;2023-10-19T08:00:37;18.85;;;12.23;;
82558;SDS011;72227;42.004;21.364;2023-10-19T08:03:04;19.33;;;13.80;;
82558;SDS011;72227;42.004;21.364;2023-10-19T08:05:30;17.63;;;13.55;;
82558;SDS011;72227;42.004;21.364;2023-10-19T08:07:57;18.13;;;12.77;;
82558;SDS011;72227;42.004;21.364;2023-10-19T08:10:25;20.75;;;12.88;;
82558;SDS011;72227;42.004;21.364;2023-10-19T08:12:52;18.00;;;12.70;;
82558;SDS011;72227;42.004;21.364;2023-10-19T08:15:20;19.00;;;12.18;;
82558;SDS011;72227;42.004;21.364;2023-10-19T08:17:50;17.75;;;12.15;;
82558;SDS011;72227;42.004;21.364;2023-10-19T08:20:18;18.80;;;13.02;;
82558;SDS011;72227;42.004;21.364;2023-10-19T08:22:56;18.95;;;12.65;;
82558;SDS011;72227;42.004;21.364;2023-10-19T08:25:22;17.65;;;11.73;;
82558;SDS011;72227;42.004;21.364;2023-10-19T08:27:48;17.02;;;12.57;;
82558;SDS011;72227;42.004;21.364;2023-10-19T08:30:18;20.17;;;13.27;;
82558;SDS011;72227;42.004;21.364;2023-10-19T08:32:46;24.85;;;13.70;;
82558;SDS011;72227;42.004;21.364;2023-10-19T08:35:16;19.08;;;12.73;;
82558;SDS011;72227;42.004;21.364;2023-10-19T08:37:53;19.40;;;12.52;;
82558;SDS011;72227;42.004;21.364;2023-10-19T08:40:24;19.55;;;12.50;;
82558;SDS011;72227;42.004;21.364;2023-10-19T08:42:51;17.45;;;11.73;;
82558;SDS011;72227;42.004;21.364;2023-10-19T08:45:19;20.92;;;12.48;;
82558;SDS011;72227;42.004;21.364;2023-10-19T08:47:59;22.73;;;11.75;;
82558;SDS011;72227;42.004;21.364;2023-10-19T08:50:28;21.55;;;11.75;;
82558;SDS011;72227;42.004;21.364;2023-10-19T08:52:55;21.35;;;13.38;;
82558;SDS011;72227;42.004;21.364;2023-10-19T08:55:21;20.00;;;12.20;;
82558;SDS011;72227;42.004;21.364;2023-10-19T08:57:48;17.17;;;10.90;;
82558;SDS011;72227;42.004;21.364;2023-10-19T09:00:18;16.42;;;10.68;;
82558;SDS011;72227;42.004;21.364;2023-10-19T09:02:50;17.83;;;12.02;;
82558;SDS011;72227;42.004;21.364;2023-10-19T09:05:17;16.63;;;11.63;;
82558;SDS011;72227;42.004;21.364;2023-10-19T09:07:53;20.63;;;10.32;;
82558;SDS011;72227;42.004;21.364;2023-10-19T09:13:00;18.08;;;10.68;;
82558;SDS011;72227;42.004;21.364;2023-10-19T09:15:30;16.30;;;10.38;;
82558;SDS011;72227;42.004;21.364;2023-10-19T09:18:17;16.10;;;9.05;;
82558;SDS011;72227;42.004;21.364;2023-10-19T09:20:45;12.35;;;9.18;;
82558;SDS011;72227;42.004;21.364;2023-10-19T09:23:31;12.23;;;8.38;;
82558;SDS011;72227;42.004;21.364;2023-10-19T09:26:00;12.90;;;7.47;;
82558;SDS011;72227;42.004;21.364;2023-10-19T09:28:31;11.10;;;7.40;;
82558;SDS011;72227;42.004;21.364;2023-10-19T09:30:59;13.57;;;7.45;;
82558;SDS011;72227;42.004;21.364;2023-10-19T09:33:26;13.18;;;7.28;;
82558;SDS011;72227;42.004;21.364;2023-10-19T09:35:54;11.73;;;6.72;;
82558;SDS011;72227;42.004;21.364;2023-10-19T09:38:25;9.95;;;7.43;;
82558;SDS011;72227;42.004;21.364;2023-10-19T09:40:52;15.02;;;7.45;;
82558;SDS011;72227;42.004;21.364;2023-10-19T09:43:30;11.60;;;7.35;;
82558;SDS011;72227;42.004;21.364;2023-10-19T09:45:58;10.20;;;6.80;;
82558;SDS011;72227;42.004;21.364;2023-10-19T09:48:26;8.95;;;6.63;;
82558;SDS011;72227;42.004;21.364;2023-10-19T09:50:53;15.25;;;7.25;;
82558;SDS011;72227;42.004;21.364;2023-10-19T09:53:26;11.85;;;7.22;;
82558;SDS011;72227;42.004;21.364;2023-10-19T09:55:56;11.40;;;7.15;;
82558;SDS011;72227;42.004;21.364;2023-10-19T09:58:24;10.98;;;6.80;;
82558;SDS011;72227;42.004;21.364;2023-10-19T10:00:50;10.80;;;7.78;;
82558;SDS011;72227;42.004;21.364;2023-10-19T10:06:01;9.93;;;6.47;;
82558;SDS011;72227;42.004;21.364;2023-10-19T10:08:30;10.20;;;6.57;;
82558;SDS011;72227;42.004;21.364;2023-10-19T10:11:18;11.18;;;6.53;;
82558;SDS011;72227;42.004;21.364;2023-10-19T10:13:44;10.20;;;7.03;;
82558;SDS011;72227;42.004;21.364;2023-10-19T10:16:14;9.52;;;6.85;;
82558;SDS011;72227;42.004;21.364;2023-10-19T10:18:40;10.15;;;6.88;;
82558;SDS011;72227;42.004;21.364;2023-10-19T10:21:07;12.30;;;7.60;;
82558;SDS011;72227;42.004;21.364;2023-10-19T10:26:14;10.13;;;7.18;;
82558;SDS011;72227;42.004;21.364;2023-10-19T10:28:41;12.73;;;8.15;;
82558;SDS011;72227;42.004;21.364;2023-10-19T10:31:20;11.07;;;8.55;;
82558;SDS011;72227;42.004;21.364;2023-10-19T10:33:51;11.70;;;8.30;;
82558;SDS011;72227;42.004;21.364;2023-10-19T10:36:20;12.48;;;7.68;;
82558;SDS011;72227;42.004;21.364;2023-10-19T10:38:47;10.73;;;8.00;;
82558;SDS011;72227;42.004;21.364;2023-10-19T10:41:19;9.75;;;7.03;;
82558;SDS011;72227;42.004;21.364;2023-10-19T10:43:55;11.65;;;7.68;;
82558;SDS011;72227;42.004;21.364;2023-10-19T10:46:23;11.85;;;7.15;;
82558;SDS011;72227;42.004;21.364;2023-10-19T10:48:50;12.48;;;8.18;;
82558;SDS011;72227;42.004;21.364;2023-10-19T10:51:17;11.48;;;7.93;;
82558;SDS011;72227;42.004;21.364;2023-10-19T10:53:47;12.52;;;7.90;;
82558;SDS011;72227;42.004;21.364;2023-10-19T10:58:41;11.23;;;7.82;;
82558;SDS011;72227;42.004;21.364;2023-10-19T11:04:10;12.30;;;8.88;;
82558;SDS011;72227;42.004;21.364;2023-10-19T11:06:47;12.27;;;8.38;;
82558;SDS011;72227;42.004;21.364;2023-10-19T11:09:14;12.90;;;9.18;;
82558;SDS011;72227;42.004;21.364;2023-10-19T11:11:47;13.65;;;9.20;;
82558;SDS011;72227;42.004;21.364;2023-10-19T11:14:18;13.05;;;8.73;;
82558;SDS011;72227;42.004;21.364;2023-10-19T11:16:50;13.10;;;8.45;;
82558;SDS011;72227;42.004;21.364;2023-10-19T11:19:17;13.32;;;9.45;;
82558;SDS011;72227;42.004;21.364;2023-10-19T11:21:55;11.93;;;9.00;;
82558;SDS011;72227;42.004;21.364;2023-10-19T11:24:25;13.38;;;8.85;;
82558;SDS011;72227;42.004;21.364;2023-10-19T11:26:51;12.57;;;9.35;;
82558;SDS011;72227;42.004;21.364;2023-10-19T11:29:17;12.45;;;8.80;;
82558;SDS011;72227;42.004;21.364;2023-10-19T11:31:56;13.85;;;9.23;;
82558;SDS011;72227;42.004;21.364;2023-10-19T11:34:28;12.35;;;8.98;;
82558;SDS011;72227;42.004;21.364;2023-10-19T11:37:28;13.52;;;8.98;;
82558;SDS011;72227;42.004;21.364;2023-10-19T11:39:59;14.35;;;9.40;;
82558;SDS011;72227;42.004;21.364;2023-10-19T11:42:25;12.43;;;8.23;;
82558;SDS011;72227;42.004;21.364;2023-10-19T11:45:04;11.93;;;8.48;;
82558;SDS011;72227;42.004;21.364;2023-10-19T11:47:33;12.93;;;9.10;;
82558;SDS011;72227;42.004;21.364;2023-10-19T11:50:00;12.13;;;8.75;;
82558;SDS011;72227;42.004;21.364;2023-10-19T11:52:27;12.27;;;8.15;;
82558;SDS011;72227;42.004;21.364;2023-10-19T11:54:56;11.85;;;8.68;;
82558;SDS011;72227;42.004;21.364;2023-10-19T11:57:31;12.55;;;8.95;;
82558;SDS011;72227;42.004;21.364;2023-10-19T12:00:12;12.02;;;8.95;;
82558;SDS011;72227;42.004;21.364;2023-10-19T12:02:54;15.73;;;8.70;;
82558;SDS011;72227;42.004;21.364;2023-10-19T12:05:20;12.05;;;8.35;;
82558;SDS011;72227;42.004;21.364;2023-10-19T12:07:48;11.38;;;8.02;;
82558;SDS011;72227;42.004;21.364;2023-10-19T12:10:14;12.32;;;8.45;;
82558;SDS011;72227;42.004;21.364;2023-10-19T12:12:42;10.98;;;7.63;;
82558;SDS011;72227;42.004;21.364;2023-10-19T12:15:08;13.13;;;8.98;;
82558;SDS011;72227;42.004;21.364;2023-10-19T12:17:37;11.73;;;8.55;;
82558;SDS011;72227;42.004;21.364;2023-10-19T12:20:03;11.23;;;8.48;;
82558;SDS011;72227;42.004;21.364;2023-10-19T12:22:31;10.40;;;7.60;;
82558;SDS011;72227;42.004;21.364;2023-10-19T12:25:03;11.95;;;8.15;;
82558;SDS011;72227;42.004;21.364;2023-10-19T12:27:30;10.88;;;7.47;;
82558;SDS011;72227;42.004;21.364;2023-10-19T12:29:56;13.88;;;7.93;;
82558;SDS011;72227;42.004;21.364;2023-10-19T12:32:24;9.82;;;7.75;;
82558;SDS011;72227;42.004;21.364;2023-10-19T12:34:53;10.63;;;7.95;;
82558;SDS011;72227;42.004;21.364;2023-10-19T12:37:23;10.48;;;7.80;;
82558;SDS011;72227;42.004;21.364;2023-10-19T12:39:50;14.38;;;7.93;;
82558;SDS011;72227;42.004;21.364;2023-10-19T12:42:16;10.25;;;7.20;;
82558;SDS011;72227;42.004;21.364;2023-10-19T12:44:43;13.27;;;8.27;;
82558;SDS011;72227;42.004;21.364;2023-10-19T12:47:09;11.52;;;7.47;;
82558;SDS011;72227;42.004;21.364;2023-10-19T12:49:38;11.50;;;8.55;;
82558;SDS011;72227;42.004;21.364;2023-10-19T12:52:05;12.55;;;9.45;;
82558;SDS011;72227;42.004;21.364;2023-10-19T12:54:38;12.70;;;8.38;;
82558;SDS011;72227;42.004;21.364;2023-10-19T12:57:08;12.60;;;9.52;;
82558;SDS011;72227;42.004;21.364;2023-10-19T12:59:35;11.45;;;8.00;;
82558;SDS011;72227;42.004;21.364;2023-10-19T13:02:07;12.30;;;8.25;;
82558;SDS011;72227;42.004;21.364;2023-10-19T13:04:40;10.73;;;7.22;;
82558;SDS011;72227;42.004;21.364;2023-10-19T13:07:07;11.18;;;8.18;;
82558;SDS011;72227;42.004;21.364;2023-10-19T13:09:35;12.80;;;9.07;;
82558;SDS011;72227;42.004;21.364;2023-10-19T13:12:04;11.57;;;8.88;;
82558;SDS011;72227;42.004;21.364;2023-10-19T13:14:32;11.60;;;8.88;;
82558;SDS011;72227;42.004;21.364;2023-10-19T13:16:59;11.77;;;7.65;;
82558;SDS011;72227;42.004;21.364;2023-10-19T13:19:28;12.00;;;8.73;;
82558;SDS011;72227;42.004;21.364;2023-10-19T13:21:54;12.65;;;8.23;;
82558;SDS011;72227;42.004;21.364;2023-10-19T13:24:23;10.15;;;8.25;;
82558;SDS011;72227;42.004;21.364;2023-10-19T13:26:51;14.70;;;8.70;;
82558;SDS011;72227;42.004;21.364;2023-10-19T13:29:17;12.38;;;8.32;;
82558;SDS011;72227;42.004;21.364;2023-10-19T13:31:45;16.77;;;8.48;;
82558;SDS011;72227;42.004;21.364;2023-10-19T13:34:15;13.75;;;7.75;;
82558;SDS011;72227;42.004;21.364;2023-10-19T13:36:41;12.00;;;7.57;;
82558;SDS011;72227;42.004;21.364;2023-10-19T13:39:10;14.88;;;8.43;;
82558;SDS011;72227;42.004;21.364;2023-10-19T13:41:41;11.80;;;7.70;;
82558;SDS011;72227;42.004;21.364;2023-10-19T13:44:07;11.73;;;7.20;;
82558;SDS011;72227;42.004;21.364;2023-10-19T13:46:33;9.43;;;7.00;;
82558;SDS011;72227;42.004;21.364;2023-10-19T13:49:00;14.38;;;7.95;;
82558;SDS011;72227;42.004;21.364;2023-10-19T13:51:28;10.05;;;7.18;;
82558;SDS011;72227;42.004;21.364;2023-10-19T13:53:55;12.35;;;7.38;;
82558;SDS011;72227;42.004;21.364;2023-10-19T13:56:21;11.27;;;7.60;;
82558;SDS011;72227;42.004;21.364;2023-10-19T13:58:47;10.95;;;8.55;;
82558;SDS011;72227;42.004;21.364;2023-10-19T14:01:14;11.25;;;8.25;;
82558;SDS011;72227;42.004;21.364;2023-10-19T14:03:40;12.07;;;7.80;;
82558;SDS011;72227;42.004;21.364;2023-10-19T14:06:15;12.30;;;8.50;;
82558;SDS011;72227;42.004;21.364;2023-10-19T14:08:42;13.60;;;7.45;;
82558;SDS011;72227;42.004;21.364;2023-10-19T14:11:08;11.55;;;8.00;;
82558;SDS011;72227;42.004;21.364;2023-10-19T14:13:35;10.60;;;7.80;;
82558;SDS011;72227;42.004;21.364;2023-10-19T14:16:06;10.93;;;8.20;;
82558;SDS011;72227;42.004;21.364;2023-10-19T14:18:33;14.32;;;8.45;;
82558;SDS011;72227;42.004;21.364;2023-10-19T14:20:59;13.77;;;8.48;;
82558;SDS011;72227;42.004;21.364;2023-10-19T14:23:25;17.30;;;12.40;;
82558;SDS011;72227;42.004;21.364;2023-10-19T14:25:52;13.50;;;9.93;;
82558;SDS011;72227;42.004;21.364;2023-10-19T14:28:18;13.98;;;9.38;;
82558;SDS011;72227;42.004;21.364;2023-10-19T14:30:44;13.63;;;9.75;;
82558;SDS011;72227;42.004;21.364;2023-10-19T14:33:11;16.50;;;10.10;;
82558;SDS011;72227;42.004;21.364;2023-10-19T14:35:37;13.93;;;9.93;;
82558;SDS011;72227;42.004;21.364;2023-10-19T14:38:07;14.88;;;9.82;;
82558;SDS011;72227;42.004;21.364;2023-10-19T14:40:34;15.52;;;11.07;;
82558;SDS011;72227;42.004;21.364;2023-10-19T14:43:00;14.13;;;10.52;;
82558;SDS011;72227;42.004;21.364;2023-10-19T14:45:28;13.70;;;10.52;;
82558;SDS011;72227;42.004;21.364;2023-10-19T14:47:55;14.57;;;11.38;;
82558;SDS011;72227;42.004;21.364;2023-10-19T14:50:22;17.00;;;11.02;;